sensor_id;sensor_type;location;lat;lon;timestamp;P1;durP1;ratioP1;P2;durP2;ratioP2
50126;SDS011;36024;47.974;16.398;2022-08-25T00:00:06;23.23;;;15.20;;
50126;SDS011;36024;47.974;16.398;2022-08-25T00:02:34;20.45;;;15.68;;
50126;SDS011;36024;47.974;16.398;2022-08-25T00:05:01;26.85;;;16.35;;
50126;SDS011;36024;47.974;16.398;2022-08-25T00:07:29;29.08;;;16.52;;
50126;SDS011;36024;47.974;16.398;2022-08-25T00:09:56;24.55;;;15.88;;
50126;SDS011;36024;47.974;16.398;2022-08-25T00:12:23;22.92;;;15.75;;
50126;SDS011;36024;47.974;16.398;2022-08-25T00:14:49;18.85;;;15.43;;
50126;SDS011;36024;47.974;16.398;2022-08-25T00:17:16;20.50;;;15.63;;
50126;SDS011;36024;47.974;16.398;2022-08-25T00:19:43;21.83;;;15.98;;
50126;SDS011;36024;47.974;16.398;2022-08-25T00:22:09;25.02;;;16.92;;
50126;SDS011;36024;47.974;16.398;2022-08-25T00:24:36;24.58;;;16.58;;
50126;SDS011;36024;47.974;16.398;2022-08-25T00:27:03;21.35;;;16.35;;
50126;SDS011;36024;47.974;16.398;2022-08-25T00:29:31;24.33;;;16.98;;
50126;SDS011;36024;47.974;16.398;2022-08-25T00:31:58;21.05;;;16.92;;
50126;SDS011;36024;47.974;16.398;2022-08-25T00:34:27;20.23;;;16.33;;
50126;SDS011;36024;47.974;16.398;2022-08-25T00:36:59;22.67;;;16.52;;
50126;SDS011;36024;47.974;16.398;2022-08-25T00:39:27;23.33;;;16.50;;
50126;SDS011;36024;47.974;16.398;2022-08-25T00:41:54;21.10;;;16.50;;
50126;SDS011;36024;47.974;16.398;2022-08-25T00:44:22;20.45;;;16.25;;
50126;SDS011;36024;47.974;16.398;2022-08-25T00:46:52;20.55;;;17.00;;
50126;SDS011;36024;47.974;16.398;2022-08-25T00:49:25;22.50;;;17.75;;
50126;SDS011;36024;47.974;16.398;2022-08-25T00:51:56;24.02;;;17.52;;
50126;SDS011;36024;47.974;16.398;2022-08-25T00:54:27;25.10;;;17.92;;
50126;SDS011;36024;47.974;16.398;2022-08-25T00:56:58;22.85;;;16.90;;
50126;SDS011;36024;47.974;16.398;2022-08-25T00:59:26;25.30;;;17.67;;
50126;SDS011;36024;47.974;16.398;2022-08-25T01:01:53;20.50;;;16.52;;
50126;SDS011;36024;47.974;16.398;2022-08-25T01:04:21;25.50;;;18.00;;
50126;SDS011;36024;47.974;16.398;2022-08-25T01:06:49;25.55;;;17.73;;
50126;SDS011;36024;47.974;16.398;2022-08-25T01:09:15;24.25;;;17.67;;
50126;SDS011;36024;47.974;16.398;2022-08-25T01:11:43;21.52;;;17.38;;
50126;SDS011;36024;47.974;16.398;2022-08-25T01:14:11;23.02;;;17.02;;
50126;SDS011;36024;47.974;16.398;2022-08-25T01:16:40;20.65;;;16.70;;
50126;SDS011;36024;47.974;16.398;2022-08-25T01:19:09;23.00;;;16.67;;
50126;SDS011;36024;47.974;16.398;2022-08-25T01:21:42;20.50;;;16.40;;
50126;SDS011;36024;47.974;16.398;2022-08-25T01:24:10;25.17;;;17.65;;
50126;SDS011;36024;47.974;16.398;2022-08-25T01:26:42;28.70;;;17.45;;
50126;SDS011;36024;47.974;16.398;2022-08-25T01:29:09;24.02;;;17.25;;
50126;SDS011;36024;47.974;16.398;2022-08-25T01:31:48;21.42;;;17.40;;
50126;SDS011;36024;47.974;16.398;2022-08-25T01:34:16;23.83;;;17.45;;
50126;SDS011;36024;47.974;16.398;2022-08-25T01:36:44;20.55;;;16.85;;
50126;SDS011;36024;47.974;16.398;2022-08-25T01:39:11;22.02;;;16.80;;
50126;SDS011;36024;47.974;16.398;2022-08-25T01:44:05;20.83;;;17.02;;
50126;SDS011;36024;47.974;16.398;2022-08-25T01:46:41;23.50;;;17.17;;
50126;SDS011;36024;47.974;16.398;2022-08-25T01:49:07;21.20;;;16.83;;
50126;SDS011;36024;47.974;16.398;2022-08-25T01:51:42;23.02;;;17.00;;
50126;SDS011;36024;47.974;16.398;2022-08-25T01:54:12;22.15;;;17.38;;
50126;SDS011;36024;47.974;16.398;2022-08-25T01:56:38;22.63;;;17.13;;
50126;SDS011;36024;47.974;16.398;2022-08-25T01:59:05;27.23;;;18.08;;
50126;SDS011;36024;47.974;16.398;2022-08-25T02:01:32;22.23;;;17.77;;
50126;SDS011;36024;47.974;16.398;2022-08-25T02:03:59;22.85;;;17.30;;
50126;SDS011;36024;47.974;16.398;2022-08-25T02:06:28;22.88;;;17.45;;
50126;SDS011;36024;47.974;16.398;2022-08-25T02:09:01;21.42;;;16.85;;
50126;SDS011;36024;47.974;16.398;2022-08-25T02:11:31;19.83;;;15.95;;
50126;SDS011;36024;47.974;16.398;2022-08-25T02:13:59;23.67;;;18.48;;
50126;SDS011;36024;47.974;16.398;2022-08-25T02:16:30;21.40;;;17.55;;
50126;SDS011;36024;47.974;16.398;2022-08-25T02:18:58;19.58;;;16.77;;
50126;SDS011;36024;47.974;16.398;2022-08-25T02:21:25;24.08;;;17.80;;
50126;SDS011;36024;47.974;16.398;2022-08-25T02:23:52;24.15;;;17.17;;
50126;SDS011;36024;47.974;16.398;2022-08-25T02:26:19;21.88;;;17.20;;
50126;SDS011;36024;47.974;16.398;2022-08-25T02:28:46;24.42;;;17.92;;
50126;SDS011;36024;47.974;16.398;2022-08-25T02:31:13;20.90;;;17.83;;
50126;SDS011;36024;47.974;16.398;2022-08-25T02:33:41;22.08;;;17.38;;
50126;SDS011;36024;47.974;16.398;2022-08-25T02:36:07;21.02;;;17.13;;
50126;SDS011;36024;47.974;16.398;2022-08-25T02:38:34;22.65;;;18.23;;
50126;SDS011;36024;47.974;16.398;2022-08-25T02:41:07;22.20;;;17.52;;
50126;SDS011;36024;47.974;16.398;2022-08-25T02:43:45;22.05;;;18.67;;
50126;SDS011;36024;47.974;16.398;2022-08-25T02:46:14;25.52;;;19.02;;
50126;SDS011;36024;47.974;16.398;2022-08-25T02:48:42;22.13;;;17.98;;
50126;SDS011;36024;47.974;16.398;2022-08-25T02:51:09;19.42;;;17.25;;
50126;SDS011;36024;47.974;16.398;2022-08-25T02:53:38;22.67;;;17.73;;
50126;SDS011;36024;47.974;16.398;2022-08-25T02:56:06;21.50;;;17.70;;
50126;SDS011;36024;47.974;16.398;2022-08-25T02:58:35;19.67;;;17.03;;
50126;SDS011;36024;47.974;16.398;2022-08-25T03:01:03;20.45;;;16.45;;
50126;SDS011;36024;47.974;16.398;2022-08-25T03:03:30;22.10;;;17.83;;
50126;SDS011;36024;47.974;16.398;2022-08-25T03:06:02;22.27;;;16.97;;
50126;SDS011;36024;47.974;16.398;2022-08-25T03:08:29;22.63;;;17.77;;
50126;SDS011;36024;47.974;16.398;2022-08-25T03:10:56;24.60;;;17.73;;
50126;SDS011;36024;47.974;16.398;2022-08-25T03:13:22;21.47;;;18.37;;
50126;SDS011;36024;47.974;16.398;2022-08-25T03:15:49;23.05;;;17.88;;
50126;SDS011;36024;47.974;16.398;2022-08-25T03:18:16;19.73;;;16.90;;
50126;SDS011;36024;47.974;16.398;2022-08-25T03:20:43;22.90;;;18.40;;
50126;SDS011;36024;47.974;16.398;2022-08-25T03:23:11;22.70;;;17.25;;
50126;SDS011;36024;47.974;16.398;2022-08-25T03:25:38;20.87;;;17.93;;
50126;SDS011;36024;47.974;16.398;2022-08-25T03:28:27;20.27;;;16.93;;
50126;SDS011;36024;47.974;16.398;2022-08-25T03:30:56;23.40;;;18.27;;
50126;SDS011;36024;47.974;16.398;2022-08-25T03:33:24;19.95;;;17.75;;
50126;SDS011;36024;47.974;16.398;2022-08-25T03:35:55;21.13;;;18.07;;
50126;SDS011;36024;47.974;16.398;2022-08-25T03:38:22;24.53;;;18.03;;
50126;SDS011;36024;47.974;16.398;2022-08-25T03:40:50;21.67;;;17.67;;
50126;SDS011;36024;47.974;16.398;2022-08-25T03:43:18;20.83;;;17.70;;
50126;SDS011;36024;47.974;16.398;2022-08-25T03:45:45;22.45;;;18.30;;
50126;SDS011;36024;47.974;16.398;2022-08-25T03:48:14;19.90;;;17.47;;
50126;SDS011;36024;47.974;16.398;2022-08-25T03:50:48;24.85;;;17.70;;
50126;SDS011;36024;47.974;16.398;2022-08-25T03:53:18;20.47;;;17.77;;
50126;SDS011;36024;47.974;16.398;2022-08-25T03:55:45;19.40;;;17.30;;
50126;SDS011;36024;47.974;16.398;2022-08-25T03:58:12;23.02;;;17.67;;
50126;SDS011;36024;47.974;16.398;2022-08-25T04:00:38;20.70;;;18.55;;
50126;SDS011;36024;47.974;16.398;2022-08-25T04:03:06;19.73;;;17.70;;
50126;SDS011;36024;47.974;16.398;2022-08-25T04:05:32;20.43;;;17.90;;
50126;SDS011;36024;47.974;16.398;2022-08-25T04:07:59;21.35;;;17.80;;
50126;SDS011;36024;47.974;16.398;2022-08-25T04:10:27;19.65;;;17.30;;
50126;SDS011;36024;47.974;16.398;2022-08-25T04:12:54;20.67;;;17.42;;
50126;SDS011;36024;47.974;16.398;2022-08-25T04:15:21;19.90;;;17.80;;
50126;SDS011;36024;47.974;16.398;2022-08-25T04:17:48;21.57;;;17.03;;
50126;SDS011;36024;47.974;16.398;2022-08-25T04:20:17;20.88;;;16.73;;
50126;SDS011;36024;47.974;16.398;2022-08-25T04:22:44;20.50;;;16.88;;
50126;SDS011;36024;47.974;16.398;2022-08-25T04:25:11;19.42;;;17.30;;
50126;SDS011;36024;47.974;16.398;2022-08-25T04:27:38;19.60;;;17.60;;
50126;SDS011;36024;47.974;16.398;2022-08-25T04:30:05;19.45;;;16.63;;
50126;SDS011;36024;47.974;16.398;2022-08-25T04:32:33;21.48;;;17.17;;
50126;SDS011;36024;47.974;16.398;2022-08-25T04:35:01;19.45;;;16.27;;
50126;SDS011;36024;47.974;16.398;2022-08-25T04:37:28;20.42;;;17.67;;
50126;SDS011;36024;47.974;16.398;2022-08-25T04:39:55;19.15;;;17.05;;
50126;SDS011;36024;47.974;16.398;2022-08-25T04:42:21;20.27;;;17.08;;
50126;SDS011;36024;47.974;16.398;2022-08-25T04:44:48;20.27;;;17.08;;
50126;SDS011;36024;47.974;16.398;2022-08-25T04:47:15;20.42;;;16.75;;
50126;SDS011;36024;47.974;16.398;2022-08-25T04:49:42;23.40;;;16.58;;
50126;SDS011;36024;47.974;16.398;2022-08-25T04:52:08;20.88;;;16.17;;
50126;SDS011;36024;47.974;16.398;2022-08-25T04:54:40;18.50;;;16.23;;
50126;SDS011;36024;47.974;16.398;2022-08-25T04:57:07;19.48;;;16.73;;
50126;SDS011;36024;47.974;16.398;2022-08-25T04:59:34;19.63;;;17.23;;
50126;SDS011;36024;47.974;16.398;2022-08-25T05:02:00;19.73;;;16.30;;
50126;SDS011;36024;47.974;16.398;2022-08-25T05:04:28;19.27;;;16.85;;
50126;SDS011;36024;47.974;16.398;2022-08-25T05:06:55;18.67;;;16.65;;
50126;SDS011;36024;47.974;16.398;2022-08-25T05:09:23;18.48;;;16.27;;
50126;SDS011;36024;47.974;16.398;2022-08-25T05:11:50;18.55;;;16.65;;
50126;SDS011;36024;47.974;16.398;2022-08-25T05:14:18;19.17;;;16.73;;
50126;SDS011;36024;47.974;16.398;2022-08-25T05:16:51;19.20;;;17.00;;
50126;SDS011;36024;47.974;16.398;2022-08-25T05:19:18;18.67;;;16.83;;
50126;SDS011;36024;47.974;16.398;2022-08-25T05:21:45;18.73;;;16.73;;
50126;SDS011;36024;47.974;16.398;2022-08-25T05:24:12;19.05;;;16.70;;
50126;SDS011;36024;47.974;16.398;2022-08-25T05:26:39;19.10;;;16.67;;
50126;SDS011;36024;47.974;16.398;2022-08-25T05:29:05;19.33;;;17.00;;
50126;SDS011;36024;47.974;16.398;2022-08-25T05:31:32;21.42;;;16.65;;
50126;SDS011;36024;47.974;16.398;2022-08-25T05:34:07;19.38;;;17.17;;
50126;SDS011;36024;47.974;16.398;2022-08-25T05:36:34;19.83;;;16.77;;
50126;SDS011;36024;47.974;16.398;2022-08-25T05:39:00;18.27;;;16.38;;
50126;SDS011;36024;47.974;16.398;2022-08-25T05:41:28;20.15;;;16.33;;
50126;SDS011;36024;47.974;16.398;2022-08-25T05:43:55;18.13;;;16.13;;
50126;SDS011;36024;47.974;16.398;2022-08-25T05:46:22;21.25;;;16.92;;
50126;SDS011;36024;47.974;16.398;2022-08-25T05:48:49;20.17;;;16.35;;
50126;SDS011;36024;47.974;16.398;2022-08-25T05:51:16;18.95;;;16.85;;
50126;SDS011;36024;47.974;16.398;2022-08-25T05:53:45;17.58;;;15.80;;
50126;SDS011;36024;47.974;16.398;2022-08-25T05:56:14;18.73;;;16.35;;
50126;SDS011;36024;47.974;16.398;2022-08-25T05:58:41;21.00;;;16.95;;
50126;SDS011;36024;47.974;16.398;2022-08-25T06:01:09;21.73;;;15.65;;
50126;SDS011;36024;47.974;16.398;2022-08-25T06:03:55;21.65;;;16.23;;
50126;SDS011;36024;47.974;16.398;2022-08-25T06:06:22;17.63;;;15.80;;
50126;SDS011;36024;47.974;16.398;2022-08-25T06:08:49;20.30;;;16.10;;
50126;SDS011;36024;47.974;16.398;2022-08-25T06:11:17;19.42;;;15.95;;
50126;SDS011;36024;47.974;16.398;2022-08-25T06:13:44;18.20;;;15.80;;
50126;SDS011;36024;47.974;16.398;2022-08-25T06:16:11;19.10;;;15.50;;
50126;SDS011;36024;47.974;16.398;2022-08-25T06:18:38;18.73;;;14.18;;
50126;SDS011;36024;47.974;16.398;2022-08-25T06:21:08;18.23;;;15.88;;
50126;SDS011;36024;47.974;16.398;2022-08-25T06:23:36;19.42;;;15.30;;
50126;SDS011;36024;47.974;16.398;2022-08-25T06:26:03;17.05;;;14.98;;
50126;SDS011;36024;47.974;16.398;2022-08-25T06:28:30;17.80;;;15.30;;
50126;SDS011;36024;47.974;16.398;2022-08-25T06:30:57;19.63;;;15.20;;
50126;SDS011;36024;47.974;16.398;2022-08-25T06:33:25;23.30;;;18.77;;
50126;SDS011;36024;47.974;16.398;2022-08-25T06:35:53;20.98;;;17.15;;
50126;SDS011;36024;47.974;16.398;2022-08-25T06:38:21;20.92;;;16.17;;
50126;SDS011;36024;47.974;16.398;2022-08-25T06:40:49;18.25;;;16.30;;
50126;SDS011;36024;47.974;16.398;2022-08-25T06:43:20;21.45;;;17.92;;
50126;SDS011;36024;47.974;16.398;2022-08-25T06:45:47;24.30;;;19.08;;
50126;SDS011;36024;47.974;16.398;2022-08-25T06:48:14;26.20;;;18.52;;
50126;SDS011;36024;47.974;16.398;2022-08-25T06:50:41;25.23;;;20.00;;
50126;SDS011;36024;47.974;16.398;2022-08-25T06:53:08;24.10;;;20.42;;
50126;SDS011;36024;47.974;16.398;2022-08-25T06:55:35;26.30;;;20.55;;
50126;SDS011;36024;47.974;16.398;2022-08-25T06:58:02;28.40;;;19.92;;
50126;SDS011;36024;47.974;16.398;2022-08-25T07:00:30;21.73;;;18.13;;
50126;SDS011;36024;47.974;16.398;2022-08-25T07:02:58;22.17;;;19.42;;
50126;SDS011;36024;47.974;16.398;2022-08-25T07:05:27;24.50;;;19.17;;
50126;SDS011;36024;47.974;16.398;2022-08-25T07:08:08;22.35;;;19.20;;
50126;SDS011;36024;47.974;16.398;2022-08-25T07:10:37;24.13;;;18.25;;
50126;SDS011;36024;47.974;16.398;2022-08-25T07:13:04;22.98;;;19.58;;
50126;SDS011;36024;47.974;16.398;2022-08-25T07:15:30;24.60;;;19.42;;
50126;SDS011;36024;47.974;16.398;2022-08-25T07:17:57;25.83;;;19.02;;
50126;SDS011;36024;47.974;16.398;2022-08-25T07:20:24;21.70;;;18.15;;
50126;SDS011;36024;47.974;16.398;2022-08-25T07:22:56;20.85;;;17.98;;
50126;SDS011;36024;47.974;16.398;2022-08-25T07:25:23;21.10;;;17.77;;
50126;SDS011;36024;47.974;16.398;2022-08-25T07:27:49;21.00;;;18.45;;
50126;SDS011;36024;47.974;16.398;2022-08-25T07:30:22;21.33;;;18.00;;
50126;SDS011;36024;47.974;16.398;2022-08-25T07:32:49;22.45;;;18.45;;
50126;SDS011;36024;47.974;16.398;2022-08-25T07:35:20;23.05;;;17.48;;
50126;SDS011;36024;47.974;16.398;2022-08-25T07:37:55;18.90;;;16.40;;
50126;SDS011;36024;47.974;16.398;2022-08-25T07:40:25;18.95;;;15.77;;
50126;SDS011;36024;47.974;16.398;2022-08-25T07:42:58;19.63;;;17.35;;
50126;SDS011;36024;47.974;16.398;2022-08-25T07:45:27;19.42;;;17.50;;
50126;SDS011;36024;47.974;16.398;2022-08-25T07:48:00;20.05;;;16.70;;
50126;SDS011;36024;47.974;16.398;2022-08-25T07:50:28;18.63;;;15.52;;
50126;SDS011;36024;47.974;16.398;2022-08-25T07:52:56;18.98;;;16.02;;
50126;SDS011;36024;47.974;16.398;2022-08-25T07:55:24;17.83;;;14.02;;
50126;SDS011;36024;47.974;16.398;2022-08-25T07:57:52;23.23;;;15.20;;
50126;SDS011;36024;47.974;16.398;2022-08-25T08:00:23;20.23;;;14.93;;
50126;SDS011;36024;47.974;16.398;2022-08-25T08:02:53;19.52;;;15.43;;
50126;SDS011;36024;47.974;16.398;2022-08-25T08:05:20;15.52;;;13.93;;
50126;SDS011;36024;47.974;16.398;2022-08-25T08:07:49;17.42;;;13.15;;
50126;SDS011;36024;47.974;16.398;2022-08-25T08:10:15;16.13;;;12.93;;
50126;SDS011;36024;47.974;16.398;2022-08-25T08:13:02;17.88;;;14.70;;
50126;SDS011;36024;47.974;16.398;2022-08-25T08:15:33;18.38;;;12.32;;
50126;SDS011;36024;47.974;16.398;2022-08-25T08:18:00;18.33;;;13.20;;
50126;SDS011;36024;47.974;16.398;2022-08-25T08:20:28;16.30;;;12.88;;
50126;SDS011;36024;47.974;16.398;2022-08-25T08:23:08;17.95;;;12.60;;
50126;SDS011;36024;47.974;16.398;2022-08-25T08:25:35;14.40;;;12.30;;
50126;SDS011;36024;47.974;16.398;2022-08-25T08:28:02;16.80;;;13.10;;
50126;SDS011;36024;47.974;16.398;2022-08-25T08:30:32;18.73;;;13.00;;
50126;SDS011;36024;47.974;16.398;2022-08-25T08:33:00;16.42;;;12.98;;
50126;SDS011;36024;47.974;16.398;2022-08-25T08:35:37;15.20;;;12.30;;
50126;SDS011;36024;47.974;16.398;2022-08-25T08:38:05;15.05;;;11.77;;
50126;SDS011;36024;47.974;16.398;2022-08-25T08:40:45;14.23;;;11.70;;
50126;SDS011;36024;47.974;16.398;2022-08-25T08:43:35;15.40;;;11.05;;
50126;SDS011;36024;47.974;16.398;2022-08-25T08:46:04;15.20;;;11.25;;
50126;SDS011;36024;47.974;16.398;2022-08-25T08:53:55;15.15;;;10.95;;
50126;SDS011;36024;47.974;16.398;2022-08-25T08:56:40;18.90;;;11.00;;
50126;SDS011;36024;47.974;16.398;2022-08-25T08:59:18;14.48;;;11.68;;
50126;SDS011;36024;47.974;16.398;2022-08-25T09:01:56;15.55;;;11.55;;
50126;SDS011;36024;47.974;16.398;2022-08-25T09:07:11;14.40;;;12.38;;
50126;SDS011;36024;47.974;16.398;2022-08-25T09:09:41;14.73;;;11.32;;
50126;SDS011;36024;47.974;16.398;2022-08-25T09:12:10;14.50;;;10.18;;
50126;SDS011;36024;47.974;16.398;2022-08-25T09:28:36;12.55;;;10.02;;
50126;SDS011;36024;47.974;16.398;2022-08-25T09:31:18;16.15;;;10.20;;
50126;SDS011;36024;47.974;16.398;2022-08-25T09:33:55;14.70;;;9.98;;
50126;SDS011;36024;47.974;16.398;2022-08-25T09:36:23;15.70;;;10.05;;
50126;SDS011;36024;47.974;16.398;2022-08-25T09:38:50;14.38;;;12.40;;
50126;SDS011;36024;47.974;16.398;2022-08-25T09:41:17;17.92;;;12.27;;
50126;SDS011;36024;47.974;16.398;2022-08-25T09:44:21;15.80;;;11.38;;
50126;SDS011;36024;47.974;16.398;2022-08-25T09:46:59;14.68;;;11.52;;
50126;SDS011;36024;47.974;16.398;2022-08-25T09:49:57;14.40;;;11.40;;
50126;SDS011;36024;47.974;16.398;2022-08-25T09:52:32;15.75;;;12.25;;
50126;SDS011;36024;47.974;16.398;2022-08-25T10:00:09;13.07;;;10.15;;
50126;SDS011;36024;47.974;16.398;2022-08-25T10:02:39;13.35;;;10.30;;
50126;SDS011;36024;47.974;16.398;2022-08-25T10:05:26;10.57;;;9.43;;
50126;SDS011;36024;47.974;16.398;2022-08-25T10:07:55;10.55;;;8.75;;
50126;SDS011;36024;47.974;16.398;2022-08-25T10:12:58;12.68;;;9.30;;
50126;SDS011;36024;47.974;16.398;2022-08-25T10:15:31;11.98;;;9.82;;
50126;SDS011;36024;47.974;16.398;2022-08-25T10:21:02;14.30;;;10.55;;
50126;SDS011;36024;47.974;16.398;2022-08-25T10:23:47;13.65;;;10.23;;
50126;SDS011;36024;47.974;16.398;2022-08-25T10:31:55;10.43;;;9.35;;
50126;SDS011;36024;47.974;16.398;2022-08-25T10:40:13;11.82;;;9.60;;
50126;SDS011;36024;47.974;16.398;2022-08-25T10:45:28;13.05;;;9.45;;
50126;SDS011;36024;47.974;16.398;2022-08-25T10:56:24;13.30;;;9.82;;
50126;SDS011;36024;47.974;16.398;2022-08-25T11:01:50;10.65;;;9.23;;
50126;SDS011;36024;47.974;16.398;2022-08-25T11:04:27;12.27;;;8.85;;
50126;SDS011;36024;47.974;16.398;2022-08-25T11:07:09;12.00;;;8.93;;
50126;SDS011;36024;47.974;16.398;2022-08-25T11:09:42;12.07;;;8.88;;
50126;SDS011;36024;47.974;16.398;2022-08-25T11:12:12;10.88;;;8.38;;
50126;SDS011;36024;47.974;16.398;2022-08-25T11:14:52;9.93;;;8.60;;
50126;SDS011;36024;47.974;16.398;2022-08-25T11:17:26;11.77;;;8.70;;
50126;SDS011;36024;47.974;16.398;2022-08-25T11:20:04;9.10;;;8.18;;
50126;SDS011;36024;47.974;16.398;2022-08-25T11:22:39;12.45;;;8.55;;
50126;SDS011;36024;47.974;16.398;2022-08-25T11:28:08;10.32;;;7.68;;
50126;SDS011;36024;47.974;16.398;2022-08-25T11:30:38;11.27;;;8.40;;
50126;SDS011;36024;47.974;16.398;2022-08-25T11:33:06;11.63;;;8.15;;
50126;SDS011;36024;47.974;16.398;2022-08-25T11:35:38;11.48;;;8.07;;
50126;SDS011;36024;47.974;16.398;2022-08-25T11:40:58;9.25;;;8.00;;
50126;SDS011;36024;47.974;16.398;2022-08-25T11:46:35;9.10;;;7.28;;
50126;SDS011;36024;47.974;16.398;2022-08-25T11:57:39;10.82;;;7.45;;
50126;SDS011;36024;47.974;16.398;2022-08-25T12:00:09;10.48;;;7.65;;
50126;SDS011;36024;47.974;16.398;2022-08-25T12:02:47;7.13;;;6.53;;
50126;SDS011;36024;47.974;16.398;2022-08-25T12:13:37;8.90;;;7.10;;
50126;SDS011;36024;47.974;16.398;2022-08-25T12:16:04;9.05;;;6.55;;
50126;SDS011;36024;47.974;16.398;2022-08-25T12:23:36;8.90;;;6.47;;
50126;SDS011;36024;47.974;16.398;2022-08-25T12:26:12;8.32;;;6.18;;
50126;SDS011;36024;47.974;16.398;2022-08-25T12:36:53;8.52;;;6.13;;
50126;SDS011;36024;47.974;16.398;2022-08-25T12:39:28;7.00;;;5.72;;
50126;SDS011;36024;47.974;16.398;2022-08-25T12:41:58;7.50;;;5.88;;
50126;SDS011;36024;47.974;16.398;2022-08-25T12:49:48;6.88;;;5.50;;
50126;SDS011;36024;47.974;16.398;2022-08-25T12:52:17;7.03;;;5.40;;
50126;SDS011;36024;47.974;16.398;2022-08-25T12:54:52;7.50;;;5.40;;
50126;SDS011;36024;47.974;16.398;2022-08-25T13:00:31;4.80;;;4.38;;
50126;SDS011;36024;47.974;16.398;2022-08-25T13:03:08;7.25;;;4.45;;
50126;SDS011;36024;47.974;16.398;2022-08-25T13:08:42;6.18;;;4.38;;
50126;SDS011;36024;47.974;16.398;2022-08-25T13:14:21;4.72;;;4.20;;
50126;SDS011;36024;47.974;16.398;2022-08-25T13:17:03;5.75;;;3.95;;
50126;SDS011;36024;47.974;16.398;2022-08-25T13:19:31;5.75;;;4.07;;
50126;SDS011;36024;47.974;16.398;2022-08-25T13:22:02;4.95;;;4.00;;
50126;SDS011;36024;47.974;16.398;2022-08-25T13:24:42;6.32;;;4.07;;
50126;SDS011;36024;47.974;16.398;2022-08-25T13:27:25;6.57;;;4.25;;
50126;SDS011;36024;47.974;16.398;2022-08-25T13:29:56;5.72;;;4.20;;
50126;SDS011;36024;47.974;16.398;2022-08-25T13:32:34;6.10;;;4.72;;
50126;SDS011;36024;47.974;16.398;2022-08-25T13:35:16;5.78;;;4.43;;
50126;SDS011;36024;47.974;16.398;2022-08-25T13:37:53;4.85;;;4.43;;
50126;SDS011;36024;47.974;16.398;2022-08-25T13:42:57;6.93;;;4.57;;
50126;SDS011;36024;47.974;16.398;2022-08-25T13:45:28;5.38;;;4.90;;
50126;SDS011;36024;47.974;16.398;2022-08-25T13:47:57;5.43;;;4.93;;
50126;SDS011;36024;47.974;16.398;2022-08-25T13:52:53;6.43;;;4.88;;
50126;SDS011;36024;47.974;16.398;2022-08-25T13:55:25;5.80;;;4.60;;
50126;SDS011;36024;47.974;16.398;2022-08-25T13:58:21;5.75;;;4.80;;
50126;SDS011;36024;47.974;16.398;2022-08-25T14:01:20;7.03;;;4.90;;
50126;SDS011;36024;47.974;16.398;2022-08-25T14:15:07;4.80;;;4.30;;
50126;SDS011;36024;47.974;16.398;2022-08-25T14:17:47;6.28;;;4.60;;
50126;SDS011;36024;47.974;16.398;2022-08-25T14:20:25;6.00;;;4.28;;
50126;SDS011;36024;47.974;16.398;2022-08-25T14:22:55;6.22;;;4.47;;
50126;SDS011;36024;47.974;16.398;2022-08-25T14:25:25;7.80;;;4.20;;
50126;SDS011;36024;47.974;16.398;2022-08-25T14:27:53;5.10;;;3.90;;
50126;SDS011;36024;47.974;16.398;2022-08-25T14:30:34;4.95;;;3.70;;
50126;SDS011;36024;47.974;16.398;2022-08-25T14:33:02;4.30;;;3.90;;
50126;SDS011;36024;47.974;16.398;2022-08-25T14:35:30;4.43;;;3.83;;
50126;SDS011;36024;47.974;16.398;2022-08-25T14:37:56;6.10;;;4.00;;
50126;SDS011;36024;47.974;16.398;2022-08-25T14:40:23;4.97;;;4.47;;
50126;SDS011;36024;47.974;16.398;2022-08-25T14:42:50;4.95;;;4.45;;
50126;SDS011;36024;47.974;16.398;2022-08-25T14:45:17;5.82;;;4.72;;
50126;SDS011;36024;47.974;16.398;2022-08-25T14:47:44;5.95;;;4.47;;
50126;SDS011;36024;47.974;16.398;2022-08-25T14:50:15;6.75;;;4.60;;
50126;SDS011;36024;47.974;16.398;2022-08-25T14:52:46;8.10;;;4.32;;
50126;SDS011;36024;47.974;16.398;2022-08-25T14:55:17;4.88;;;4.38;;
50126;SDS011;36024;47.974;16.398;2022-08-25T14:57:57;6.72;;;4.65;;
50126;SDS011;36024;47.974;16.398;2022-08-25T15:00:24;5.13;;;4.63;;
50126;SDS011;36024;47.974;16.398;2022-08-25T15:02:51;5.65;;;4.40;;
50126;SDS011;36024;47.974;16.398;2022-08-25T15:05:22;6.97;;;4.05;;
50126;SDS011;36024;47.974;16.398;2022-08-25T15:07:54;5.15;;;4.00;;
50126;SDS011;36024;47.974;16.398;2022-08-25T15:10:47;6.25;;;4.18;;
50126;SDS011;36024;47.974;16.398;2022-08-25T15:13:13;6.05;;;3.85;;
50126;SDS011;36024;47.974;16.398;2022-08-25T15:15:42;4.45;;;4.05;;
50126;SDS011;36024;47.974;16.398;2022-08-25T15:18:18;4.72;;;3.72;;
50126;SDS011;36024;47.974;16.398;2022-08-25T15:20:45;8.93;;;5.97;;
50126;SDS011;36024;47.974;16.398;2022-08-25T15:23:16;5.95;;;4.15;;
50126;SDS011;36024;47.974;16.398;2022-08-25T15:25:44;7.00;;;6.30;;
50126;SDS011;36024;47.974;16.398;2022-08-25T15:28:12;6.15;;;4.80;;
50126;SDS011;36024;47.974;16.398;2022-08-25T15:30:43;5.05;;;4.38;;
50126;SDS011;36024;47.974;16.398;2022-08-25T15:33:11;5.32;;;4.10;;
50126;SDS011;36024;47.974;16.398;2022-08-25T15:35:39;5.97;;;4.40;;
50126;SDS011;36024;47.974;16.398;2022-08-25T15:38:06;6.28;;;4.15;;
50126;SDS011;36024;47.974;16.398;2022-08-25T15:40:33;5.82;;;4.32;;
50126;SDS011;36024;47.974;16.398;2022-08-25T15:43:03;4.88;;;4.38;;
50126;SDS011;36024;47.974;16.398;2022-08-25T15:45:30;4.78;;;4.30;;
50126;SDS011;36024;47.974;16.398;2022-08-25T15:47:58;6.53;;;4.10;;
50126;SDS011;36024;47.974;16.398;2022-08-25T15:50:24;4.70;;;3.90;;
50126;SDS011;36024;47.974;16.398;2022-08-25T15:52:52;6.50;;;4.22;;
50126;SDS011;36024;47.974;16.398;2022-08-25T15:55:18;6.53;;;4.00;;
50126;SDS011;36024;47.974;16.398;2022-08-25T15:57:46;7.05;;;3.83;;
50126;SDS011;36024;47.974;16.398;2022-08-25T16:00:15;4.63;;;3.88;;
50126;SDS011;36024;47.974;16.398;2022-08-25T16:02:42;4.00;;;3.60;;
50126;SDS011;36024;47.974;16.398;2022-08-25T16:05:11;5.45;;;3.95;;
50126;SDS011;36024;47.974;16.398;2022-08-25T16:07:41;4.15;;;3.58;;
50126;SDS011;36024;47.974;16.398;2022-08-25T16:10:08;6.05;;;3.80;;
50126;SDS011;36024;47.974;16.398;2022-08-25T16:12:36;6.38;;;3.90;;
50126;SDS011;36024;47.974;16.398;2022-08-25T16:15:03;6.60;;;4.50;;
50126;SDS011;36024;47.974;16.398;2022-08-25T16:17:31;4.90;;;4.13;;
50126;SDS011;36024;47.974;16.398;2022-08-25T16:19:57;5.43;;;4.10;;
50126;SDS011;36024;47.974;16.398;2022-08-25T16:22:24;5.22;;;3.40;;
50126;SDS011;36024;47.974;16.398;2022-08-25T16:24:51;5.30;;;3.88;;
50126;SDS011;36024;47.974;16.398;2022-08-25T16:27:18;4.88;;;3.50;;
50126;SDS011;36024;47.974;16.398;2022-08-25T16:29:45;3.75;;;3.40;;
50126;SDS011;36024;47.974;16.398;2022-08-25T16:32:13;4.20;;;3.80;;
50126;SDS011;36024;47.974;16.398;2022-08-25T16:34:41;6.07;;;3.58;;
50126;SDS011;36024;47.974;16.398;2022-08-25T16:37:09;3.92;;;3.53;;
50126;SDS011;36024;47.974;16.398;2022-08-25T16:39:36;5.68;;;3.88;;
50126;SDS011;36024;47.974;16.398;2022-08-25T16:42:06;5.15;;;3.80;;